sensor_id;sensor_type;location;lat;lon;timestamp;temperature;humidity
7900;DHT22;3995;50.856;4.404;2023-06-14T00:31:13;28.40;32.30
7900;DHT22;3995;50.856;4.404;2023-06-14T00:33:40;28.30;32.50
7900;DHT22;3995;50.856;4.404;2023-06-14T00:36:07;28.30;32.50
7900;DHT22;3995;50.856;4.404;2023-06-14T00:38:34;28.30;32.40
7900;DHT22;3995;50.856;4.404;2023-06-14T00:41:02;28.30;32.40
7900;DHT22;3995;50.856;4.404;2023-06-14T00:43:29;28.30;32.50
7900;DHT22;3995;50.856;4.404;2023-06-14T00:45:57;28.30;32.50
7900;DHT22;3995;50.856;4.404;2023-06-14T00:48:26;28.30;32.50
7900;DHT22;3995;50.856;4.404;2023-06-14T00:50:54;28.20;32.50
7900;DHT22;3995;50.856;4.404;2023-06-14T00:53:22;28.20;32.50
7900;DHT22;3995;50.856;4.404;2023-06-14T00:55:50;28.20;32.60
7900;DHT22;3995;50.856;4.404;2023-06-14T00:58:18;28.20;32.60
7900;DHT22;3995;50.856;4.404;2023-06-14T01:00:46;28.10;32.60
7900;DHT22;3995;50.856;4.404;2023-06-14T01:03:14;28.20;32.70
7900;DHT22;3995;50.856;4.404;2023-06-14T01:05:49;28.10;32.60
7900;DHT22;3995;50.856;4.404;2023-06-14T01:08:28;28.20;32.60
7900;DHT22;3995;50.856;4.404;2023-06-14T01:11:01;28.20;32.70
7900;DHT22;3995;50.856;4.404;2023-06-14T01:13:33;28.20;32.60
7900;DHT22;3995;50.856;4.404;2023-06-14T01:16:04;28.20;32.70
7900;DHT22;3995;50.856;4.404;2023-06-14T01:18:41;28.10;32.70
7900;DHT22;3995;50.856;4.404;2023-06-14T01:29:06;28.10;32.80
7900;DHT22;3995;50.856;4.404;2023-06-14T01:35:10;28.00;32.80
7900;DHT22;3995;50.856;4.404;2023-06-14T01:37:38;28.00;33.20
7900;DHT22;3995;50.856;4.404;2023-06-14T01:40:10;28.00;33.30
7900;DHT22;3995;50.856;4.404;2023-06-14T01:42:38;28.00;33.50
7900;DHT22;3995;50.856;4.404;2023-06-14T01:45:09;28.00;33.50
7900;DHT22;3995;50.856;4.404;2023-06-14T01:47:37;28.00;33.30
7900;DHT22;3995;50.856;4.404;2023-06-14T01:50:05;28.00;33.40
7900;DHT22;3995;50.856;4.404;2023-06-14T01:52:33;28.00;33.50
7900;DHT22;3995;50.856;4.404;2023-06-14T01:55:02;27.90;33.40
7900;DHT22;3995;50.856;4.404;2023-06-14T01:57:29;27.90;34.10
7900;DHT22;3995;50.856;4.404;2023-06-14T01:59:58;27.90;33.60
7900;DHT22;3995;50.856;4.404;2023-06-14T02:02:30;27.80;33.60
7900;DHT22;3995;50.856;4.404;2023-06-14T02:04:57;27.80;33.80
7900;DHT22;3995;50.856;4.404;2023-06-14T02:07:31;27.80;33.90
7900;DHT22;3995;50.856;4.404;2023-06-14T02:09:59;27.80;33.90
7900;DHT22;3995;50.856;4.404;2023-06-14T02:12:26;27.70;33.90
7900;DHT22;3995;50.856;4.404;2023-06-14T02:14:53;27.70;34.10
7900;DHT22;3995;50.856;4.404;2023-06-14T02:17:22;27.70;34.10
7900;DHT22;3995;50.856;4.404;2023-06-14T02:19:51;27.60;34.10
7900;DHT22;3995;50.856;4.404;2023-06-14T02:22:19;27.60;34.20
7900;DHT22;3995;50.856;4.404;2023-06-14T02:24:47;27.60;34.30
7900;DHT22;3995;50.856;4.404;2023-06-14T02:27:15;27.60;34.30
7900;DHT22;3995;50.856;4.404;2023-06-14T02:33:25;27.60;34.20
7900;DHT22;3995;50.856;4.404;2023-06-14T02:35:55;27.60;34.30
7900;DHT22;3995;50.856;4.404;2023-06-14T02:38:22;27.50;34.40
7900;DHT22;3995;50.856;4.404;2023-06-14T02:40:51;27.50;34.40
7900;DHT22;3995;50.856;4.404;2023-06-14T02:43:19;27.50;34.40
7900;DHT22;3995;50.856;4.404;2023-06-14T02:45:47;27.50;34.60
7900;DHT22;3995;50.856;4.404;2023-06-14T02:48:14;27.40;34.40
7900;DHT22;3995;50.856;4.404;2023-06-14T02:50:41;27.40;34.40
7900;DHT22;3995;50.856;4.404;2023-06-14T02:53:12;27.40;34.50
7900;DHT22;3995;50.856;4.404;2023-06-14T02:55:39;27.30;34.40
7900;DHT22;3995;50.856;4.404;2023-06-14T02:58:07;27.30;34.40
7900;DHT22;3995;50.856;4.404;2023-06-14T03:00:34;27.40;34.50
7900;DHT22;3995;50.856;4.404;2023-06-14T03:03:02;27.40;34.50
7900;DHT22;3995;50.856;4.404;2023-06-14T03:05:30;27.40;34.50
7900;DHT22;3995;50.856;4.404;2023-06-14T03:07:58;27.40;34.60
7900;DHT22;3995;50.856;4.404;2023-06-14T03:10:27;27.30;34.60
7900;DHT22;3995;50.856;4.404;2023-06-14T03:12:55;27.30;34.70
7900;DHT22;3995;50.856;4.404;2023-06-14T03:15:22;27.20;34.60
7900;DHT22;3995;50.856;4.404;2023-06-14T03:17:50;27.20;34.80
7900;DHT22;3995;50.856;4.404;2023-06-14T03:20:19;27.20;34.80
7900;DHT22;3995;50.856;4.404;2023-06-14T03:22:46;27.20;34.80
7900;DHT22;3995;50.856;4.404;2023-06-14T03:25:14;27.20;34.80
7900;DHT22;3995;50.856;4.404;2023-06-14T03:27:43;27.20;34.70
7900;DHT22;3995;50.856;4.404;2023-06-14T03:30:11;27.20;34.80
7900;DHT22;3995;50.856;4.404;2023-06-14T03:32:39;27.10;34.70
7900;DHT22;3995;50.856;4.404;2023-06-14T03:35:07;27.10;34.80
7900;DHT22;3995;50.856;4.404;2023-06-14T03:37:35;27.10;34.80
7900;DHT22;3995;50.856;4.404;2023-06-14T03:41:03;27.00;34.80
7900;DHT22;3995;50.856;4.404;2023-06-14T03:43:20;27.00;34.90
7900;DHT22;3995;50.856;4.404;2023-06-14T03:45:47;26.90;35.00
7900;DHT22;3995;50.856;4.404;2023-06-14T03:48:14;26.90;35.10
7900;DHT22;3995;50.856;4.404;2023-06-14T03:50:41;26.90;35.20
7900;DHT22;3995;50.856;4.404;2023-06-14T03:53:10;26.80;35.10
7900;DHT22;3995;50.856;4.404;2023-06-14T03:55:37;26.80;35.10
7900;DHT22;3995;50.856;4.404;2023-06-14T03:58:05;26.80;35.20
7900;DHT22;3995;50.856;4.404;2023-06-14T04:00:34;26.80;35.30
7900;DHT22;3995;50.856;4.404;2023-06-14T04:03:01;26.80;35.30
7900;DHT22;3995;50.856;4.404;2023-06-14T04:05:29;26.70;35.40
7900;DHT22;3995;50.856;4.404;2023-06-14T04:07:57;26.70;35.40
7900;DHT22;3995;50.856;4.404;2023-06-14T04:10:24;26.70;35.60
7900;DHT22;3995;50.856;4.404;2023-06-14T04:12:52;26.70;35.60
7900;DHT22;3995;50.856;4.404;2023-06-14T04:15:19;26.60;35.50
7900;DHT22;3995;50.856;4.404;2023-06-14T04:17:51;26.60;35.60
7900;DHT22;3995;50.856;4.404;2023-06-14T04:20:23;26.60;35.60
7900;DHT22;3995;50.856;4.404;2023-06-14T04:22:51;26.60;35.70
7900;DHT22;3995;50.856;4.404;2023-06-14T04:25:19;26.50;35.70
7900;DHT22;3995;50.856;4.404;2023-06-14T04:27:46;26.50;35.70
7900;DHT22;3995;50.856;4.404;2023-06-14T04:30:15;26.50;35.80
7900;DHT22;3995;50.856;4.404;2023-06-14T04:32:43;26.50;35.90
7900;DHT22;3995;50.856;4.404;2023-06-14T04:35:14;26.50;35.90
7900;DHT22;3995;50.856;4.404;2023-06-14T04:37:45;26.50;36.60
7900;DHT22;3995;50.856;4.404;2023-06-14T04:40:48;26.40;35.90
7900;DHT22;3995;50.856;4.404;2023-06-14T04:43:31;26.50;35.90
7900;DHT22;3995;50.856;4.404;2023-06-14T04:46:04;26.30;36.00
7900;DHT22;3995;50.856;4.404;2023-06-14T04:48:35;26.30;36.10
7900;DHT22;3995;50.856;4.404;2023-06-14T04:51:04;26.30;36.10
7900;DHT22;3995;50.856;4.404;2023-06-14T04:53:32;26.30;36.10
7900;DHT22;3995;50.856;4.404;2023-06-14T04:55:59;26.30;36.20
7900;DHT22;3995;50.856;4.404;2023-06-14T04:58:28;26.30;36.20
7900;DHT22;3995;50.856;4.404;2023-06-14T05:00:56;26.30;36.20
7900;DHT22;3995;50.856;4.404;2023-06-14T05:03:25;26.30;36.30
7900;DHT22;3995;50.856;4.404;2023-06-14T05:05:53;26.30;36.30
7900;DHT22;3995;50.856;4.404;2023-06-14T05:08:24;26.30;36.40
7900;DHT22;3995;50.856;4.404;2023-06-14T05:10:52;26.30;36.20
7900;DHT22;3995;50.856;4.404;2023-06-14T05:13:20;26.30;36.20
7900;DHT22;3995;50.856;4.404;2023-06-14T05:15:54;26.30;36.40
7900;DHT22;3995;50.856;4.404;2023-06-14T05:18:22;26.30;36.40
7900;DHT22;3995;50.856;4.404;2023-06-14T05:20:51;26.30;36.40
7900;DHT22;3995;50.856;4.404;2023-06-14T05:23:18;26.30;36.40
7900;DHT22;3995;50.856;4.404;2023-06-14T05:25:48;26.30;36.50
7900;DHT22;3995;50.856;4.404;2023-06-14T05:28:15;26.40;36.50
7900;DHT22;3995;50.856;4.404;2023-06-14T05:30:46;26.40;36.50
7900;DHT22;3995;50.856;4.404;2023-06-14T05:33:13;26.40;36.50
7900;DHT22;3995;50.856;4.404;2023-06-14T05:35:41;26.40;36.50
7900;DHT22;3995;50.856;4.404;2023-06-14T05:38:08;26.40;36.50
7900;DHT22;3995;50.856;4.404;2023-06-14T05:40:36;26.40;36.50
7900;DHT22;3995;50.856;4.404;2023-06-14T05:43:05;26.40;36.60
7900;DHT22;3995;50.856;4.404;2023-06-14T05:45:33;26.40;36.60
7900;DHT22;3995;50.856;4.404;2023-06-14T05:48:01;26.40;36.70
7900;DHT22;3995;50.856;4.404;2023-06-14T05:50:29;26.40;36.70
7900;DHT22;3995;50.856;4.404;2023-06-14T05:52:56;26.50;36.70
7900;DHT22;3995;50.856;4.404;2023-06-14T05:55:31;26.50;36.70
7900;DHT22;3995;50.856;4.404;2023-06-14T05:57:59;26.50;36.70
7900;DHT22;3995;50.856;4.404;2023-06-14T06:00:28;26.50;36.70
7900;DHT22;3995;50.856;4.404;2023-06-14T06:02:56;26.50;36.70
7900;DHT22;3995;50.856;4.404;2023-06-14T06:05:23;26.60;36.70
7900;DHT22;3995;50.856;4.404;2023-06-14T06:07:51;26.60;36.80
7900;DHT22;3995;50.856;4.404;2023-06-14T06:10:19;26.60;36.70
7900;DHT22;3995;50.856;4.404;2023-06-14T06:12:47;26.70;36.90
7900;DHT22;3995;50.856;4.404;2023-06-14T06:15:14;26.70;36.80
7900;DHT22;3995;50.856;4.404;2023-06-14T06:17:44;26.70;36.70
7900;DHT22;3995;50.856;4.404;2023-06-14T06:20:12;26.70;36.70
7900;DHT22;3995;50.856;4.404;2023-06-14T06:22:43;26.70;36.80
7900;DHT22;3995;50.856;4.404;2023-06-14T06:25:10;26.70;36.80
7900;DHT22;3995;50.856;4.404;2023-06-14T06:27:37;26.80;36.70
7900;DHT22;3995;50.856;4.404;2023-06-14T06:30:07;26.80;36.70
7900;DHT22;3995;50.856;4.404;2023-06-14T06:32:40;26.90;36.50
7900;DHT22;3995;50.856;4.404;2023-06-14T06:35:09;26.90;36.30
7900;DHT22;3995;50.856;4.404;2023-06-14T06:37:38;26.90;36.30
7900;DHT22;3995;50.856;4.404;2023-06-14T06:40:07;26.90;36.30
7900;DHT22;3995;50.856;4.404;2023-06-14T06:42:35;26.90;36.20
7900;DHT22;3995;50.856;4.404;2023-06-14T06:45:04;26.90;36.30
7900;DHT22;3995;50.856;4.404;2023-06-14T06:47:32;26.90;36.40
7900;DHT22;3995;50.856;4.404;2023-06-14T06:49:59;26.90;36.40
7900;DHT22;3995;50.856;4.404;2023-06-14T06:52:29;26.90;36.50
7900;DHT22;3995;50.856;4.404;2023-06-14T06:54:56;26.90;36.40
7900;DHT22;3995;50.856;4.404;2023-06-14T06:57:23;26.90;36.30
7900;DHT22;3995;50.856;4.404;2023-06-14T06:59:51;26.90;36.50
7900;DHT22;3995;50.856;4.404;2023-06-14T07:02:19;27.00;36.50
7900;DHT22;3995;50.856;4.404;2023-06-14T07:04:47;27.00;36.70
7900;DHT22;3995;50.856;4.404;2023-06-14T07:07:14;27.00;36.70
7900;DHT22;3995;50.856;4.404;2023-06-14T07:09:43;27.00;36.60
7900;DHT22;3995;50.856;4.404;2023-06-14T07:12:11;27.10;36.70
7900;DHT22;3995;50.856;4.404;2023-06-14T07:14:39;27.10;36.70
7900;DHT22;3995;50.856;4.404;2023-06-14T07:17:06;27.10;36.60
7900;DHT22;3995;50.856;4.404;2023-06-14T07:19:33;27.10;36.60
7900;DHT22;3995;50.856;4.404;2023-06-14T07:22:01;27.10;36.50
7900;DHT22;3995;50.856;4.404;2023-06-14T07:24:29;27.20;36.40
7900;DHT22;3995;50.856;4.404;2023-06-14T07:26:59;27.10;36.40
7900;DHT22;3995;50.856;4.404;2023-06-14T07:29:26;27.20;36.40
7900;DHT22;3995;50.856;4.404;2023-06-14T07:31:53;27.20;36.40
7900;DHT22;3995;50.856;4.404;2023-06-14T07:34:21;27.20;36.40
7900;DHT22;3995;50.856;4.404;2023-06-14T07:36:48;27.20;36.50
7900;DHT22;3995;50.856;4.404;2023-06-14T07:39:15;27.20;36.70
7900;DHT22;3995;50.856;4.404;2023-06-14T07:41:43;27.20;36.80
7900;DHT22;3995;50.856;4.404;2023-06-14T07:44:13;27.20;36.90
7900;DHT22;3995;50.856;4.404;2023-06-14T07:46:43;27.30;37.30
7900;DHT22;3995;50.856;4.404;2023-06-14T07:49:12;27.30;37.40
7900;DHT22;3995;50.856;4.404;2023-06-14T07:51:40;27.20;37.30
7900;DHT22;3995;50.856;4.404;2023-06-14T07:54:07;27.30;37.20
7900;DHT22;3995;50.856;4.404;2023-06-14T07:56:35;27.30;37.30
7900;DHT22;3995;50.856;4.404;2023-06-14T07:59:03;27.30;37.50
7900;DHT22;3995;50.856;4.404;2023-06-14T08:01:33;27.30;37.60
7900;DHT22;3995;50.856;4.404;2023-06-14T08:04:02;27.40;37.50
7900;DHT22;3995;50.856;4.404;2023-06-14T08:06:29;27.30;37.40
7900;DHT22;3995;50.856;4.404;2023-06-14T08:08:57;27.40;37.40
7900;DHT22;3995;50.856;4.404;2023-06-14T08:11:24;27.40;37.40
7900;DHT22;3995;50.856;4.404;2023-06-14T08:13:52;27.40;37.30
7900;DHT22;3995;50.856;4.404;2023-06-14T08:16:21;27.40;37.40
7900;DHT22;3995;50.856;4.404;2023-06-14T08:18:50;27.40;37.30
7900;DHT22;3995;50.856;4.404;2023-06-14T08:21:20;27.40;37.50
7900;DHT22;3995;50.856;4.404;2023-06-14T08:23:48;27.40;37.30
7900;DHT22;3995;50.856;4.404;2023-06-14T08:26:22;27.40;37.00
7900;DHT22;3995;50.856;4.404;2023-06-14T08:28:50;27.40;36.80
7900;DHT22;3995;50.856;4.404;2023-06-14T08:31:18;27.40;36.70
7900;DHT22;3995;50.856;4.404;2023-06-14T08:33:45;27.40;36.70
7900;DHT22;3995;50.856;4.404;2023-06-14T08:36:15;27.40;36.50
7900;DHT22;3995;50.856;4.404;2023-06-14T08:38:43;27.50;36.40
7900;DHT22;3995;50.856;4.404;2023-06-14T08:41:12;27.50;36.30
7900;DHT22;3995;50.856;4.404;2023-06-14T08:43:44;27.50;36.50
7900;DHT22;3995;50.856;4.404;2023-06-14T08:46:12;27.50;36.50
7900;DHT22;3995;50.856;4.404;2023-06-14T08:48:42;27.50;36.20
7900;DHT22;3995;50.856;4.404;2023-06-14T08:51:10;27.50;36.10
7900;DHT22;3995;50.856;4.404;2023-06-14T08:53:40;27.50;36.30
7900;DHT22;3995;50.856;4.404;2023-06-14T08:56:08;27.50;36.30
7900;DHT22;3995;50.856;4.404;2023-06-14T08:58:40;27.50;36.20
7900;DHT22;3995;50.856;4.404;2023-06-14T09:01:11;27.50;36.40
7900;DHT22;3995;50.856;4.404;2023-06-14T09:03:40;27.50;36.70
7900;DHT22;3995;50.856;4.404;2023-06-14T09:06:08;27.50;37.00
7900;DHT22;3995;50.856;4.404;2023-06-14T09:08:42;27.50;37.20
7900;DHT22;3995;50.856;4.404;2023-06-14T09:11:11;27.60;37.50
7900;DHT22;3995;50.856;4.404;2023-06-14T09:13:40;27.60;37.70
7900;DHT22;3995;50.856;4.404;2023-06-14T09:16:08;27.50;37.80
7900;DHT22;3995;50.856;4.404;2023-06-14T09:18:38;27.60;37.90
7900;DHT22;3995;50.856;4.404;2023-06-14T09:21:07;27.60;37.50
7900;DHT22;3995;50.856;4.404;2023-06-14T09:23:37;27.60;37.00
7900;DHT22;3995;50.856;4.404;2023-06-14T09:26:10;27.60;37.60
7900;DHT22;3995;50.856;4.404;2023-06-14T09:28:41;27.60;37.00
7900;DHT22;3995;50.856;4.404;2023-06-14T09:31:10;27.60;37.20
7900;DHT22;3995;50.856;4.404;2023-06-14T09:33:38;27.60;37.00
7900;DHT22;3995;50.856;4.404;2023-06-14T09:36:10;27.60;36.90
7900;DHT22;3995;50.856;4.404;2023-06-14T09:38:40;27.70;36.70
7900;DHT22;3995;50.856;4.404;2023-06-14T09:41:09;27.70;36.30
7900;DHT22;3995;50.856;4.404;2023-06-14T09:43:37;27.70;36.20
7900;DHT22;3995;50.856;4.404;2023-06-14T09:46:05;27.70;36.20
7900;DHT22;3995;50.856;4.404;2023-06-14T09:48:33;27.70;35.90
7900;DHT22;3995;50.856;4.404;2023-06-14T09:51:02;27.70;36.20
7900;DHT22;3995;50.856;4.404;2023-06-14T09:53:33;27.70;36.30
7900;DHT22;3995;50.856;4.404;2023-06-14T09:56:04;27.70;36.50
7900;DHT22;3995;50.856;4.404;2023-06-14T09:58:37;27.70;36.50
7900;DHT22;3995;50.856;4.404;2023-06-14T10:01:08;27.80;36.40
7900;DHT22;3995;50.856;4.404;2023-06-14T10:03:39;27.80;36.00
7900;DHT22;3995;50.856;4.404;2023-06-14T10:06:09;27.80;35.40
7900;DHT22;3995;50.856;4.404;2023-06-14T10:08:38;27.80;35.20
7900;DHT22;3995;50.856;4.404;2023-06-14T10:11:07;27.80;35.30
7900;DHT22;3995;50.856;4.404;2023-06-14T10:13:36;27.80;35.60
7900;DHT22;3995;50.856;4.404;2023-06-14T10:16:09;27.90;34.20
7900;DHT22;3995;50.856;4.404;2023-06-14T10:18:44;27.90;34.00
7900;DHT22;3995;50.856;4.404;2023-06-14T10:21:20;27.90;34.50
7900;DHT22;3995;50.856;4.404;2023-06-14T10:23:50;27.90;34.00
7900;DHT22;3995;50.856;4.404;2023-06-14T10:26:20;27.90;34.40
7900;DHT22;3995;50.856;4.404;2023-06-14T10:29:01;27.90;34.90
7900;DHT22;3995;50.856;4.404;2023-06-14T10:31:41;28.00;34.10
7900;DHT22;3995;50.856;4.404;2023-06-14T10:34:10;28.00;34.60
7900;DHT22;3995;50.856;4.404;2023-06-14T10:36:41;28.00;34.60
7900;DHT22;3995;50.856;4.404;2023-06-14T10:39:14;28.00;34.70
7900;DHT22;3995;50.856;4.404;2023-06-14T10:41:52;28.10;34.90
7900;DHT22;3995;50.856;4.404;2023-06-14T10:44:42;28.10;34.40
7900;DHT22;3995;50.856;4.404;2023-06-14T10:47:21;28.20;35.30
7900;DHT22;3995;50.856;4.404;2023-06-14T10:49:51;28.20;34.50
7900;DHT22;3995;50.856;4.404;2023-06-14T10:52:23;28.20;34.50
7900;DHT22;3995;50.856;4.404;2023-06-14T10:55:07;28.20;34.20
7900;DHT22;3995;50.856;4.404;2023-06-14T10:57:40;28.30;34.00
7900;DHT22;3995;50.856;4.404;2023-06-14T11:00:11;28.30;35.00
7900;DHT22;3995;50.856;4.404;2023-06-14T11:05:48;28.50;35.10
7900;DHT22;3995;50.856;4.404;2023-06-14T11:11:18;28.60;34.70
7900;DHT22;3995;50.856;4.404;2023-06-14T11:13:46;28.60;35.40
7900;DHT22;3995;50.856;4.404;2023-06-14T11:16:16;28.70;33.40
7900;DHT22;3995;50.856;4.404;2023-06-14T11:18:45;28.80;33.80
7900;DHT22;3995;50.856;4.404;2023-06-14T11:21:16;28.90;32.60
7900;DHT22;3995;50.856;4.404;2023-06-14T11:23:51;29.00;32.60
7900;DHT22;3995;50.856;4.404;2023-06-14T11:26:27;29.10;31.90
7900;DHT22;3995;50.856;4.404;2023-06-14T11:28:56;29.30;32.40
7900;DHT22;3995;50.856;4.404;2023-06-14T11:31:25;29.30;31.20
7900;DHT22;3995;50.856;4.404;2023-06-14T11:33:54;29.50;30.70
7900;DHT22;3995;50.856;4.404;2023-06-14T11:36:22;29.60;32.70
7900;DHT22;3995;50.856;4.404;2023-06-14T11:38:50;29.70;31.90
7900;DHT22;3995;50.856;4.404;2023-06-14T11:41:25;29.80;31.70
7900;DHT22;3995;50.856;4.404;2023-06-14T11:43:53;29.90;30.70
7900;DHT22;3995;50.856;4.404;2023-06-14T11:46:20;30.10;31.50
7900;DHT22;3995;50.856;4.404;2023-06-14T11:48:52;30.20;33.00
7900;DHT22;3995;50.856;4.404;2023-06-14T11:51:20;30.30;32.70
7900;DHT22;3995;50.856;4.404;2023-06-14T11:53:47;30.30;32.60
7900;DHT22;3995;50.856;4.404;2023-06-14T11:56:15;30.50;32.50
7900;DHT22;3995;50.856;4.404;2023-06-14T11:58:43;30.70;32.60
7900;DHT22;3995;50.856;4.404;2023-06-14T12:01:15;30.90;32.70
7900;DHT22;3995;50.856;4.404;2023-06-14T12:03:52;31.20;32.50
7900;DHT22;3995;50.856;4.404;2023-06-14T12:06:27;31.50;31.50
7900;DHT22;3995;50.856;4.404;2023-06-14T12:09:02;31.80;31.00
7900;DHT22;3995;50.856;4.404;2023-06-14T12:11:45;32.20;31.60
7900;DHT22;3995;50.856;4.404;2023-06-14T12:14:49;32.50;30.70
7900;DHT22;3995;50.856;4.404;2023-06-14T12:17:22;32.80;30.40
7900;DHT22;3995;50.856;4.404;2023-06-14T12:19:57;33.10;28.40
7900;DHT22;3995;50.856;4.404;2023-06-14T12:22:28;33.30;28.60
7900;DHT22;3995;50.856;4.404;2023-06-14T12:24:57;33.60;29.50
7900;DHT22;3995;50.856;4.404;2023-06-14T12:27:25;33.80;28.70
7900;DHT22;3995;50.856;4.404;2023-06-14T12:30:02;34.10;29.10
7900;DHT22;3995;50.856;4.404;2023-06-14T12:32:29;34.30;28.60
7900;DHT22;3995;50.856;4.404;2023-06-14T12:35:00;34.50;28.00
7900;DHT22;3995;50.856;4.404;2023-06-14T12:37:28;34.70;28.20
7900;DHT22;3995;50.856;4.404;2023-06-14T12:39:55;35.00;28.60
7900;DHT22;3995;50.856;4.404;2023-06-14T12:42:23;35.20;28.40
7900;DHT22;3995;50.856;4.404;2023-06-14T12:44:51;35.40;27.60
7900;DHT22;3995;50.856;4.404;2023-06-14T12:47:19;35.50;27.40
7900;DHT22;3995;50.856;4.404;2023-06-14T12:49:47;35.60;27.70
7900;DHT22;3995;50.856;4.404;2023-06-14T12:52:19;35.70;26.60
7900;DHT22;3995;50.856;4.404;2023-06-14T12:54:46;35.70;27.00
7900;DHT22;3995;50.856;4.404;2023-06-14T12:57:14;35.80;26.70
7900;DHT22;3995;50.856;4.404;2023-06-14T12:59:42;35.80;27.20
7900;DHT22;3995;50.856;4.404;2023-06-14T13:02:13;35.80;26.50
7900;DHT22;3995;50.856;4.404;2023-06-14T13:04:41;35.80;25.90
7900;DHT22;3995;50.856;4.404;2023-06-14T13:07:09;35.70;26.30
7900;DHT22;3995;50.856;4.404;2023-06-14T13:09:39;35.70;26.70
7900;DHT22;3995;50.856;4.404;2023-06-14T13:12:07;35.60;26.30
7900;DHT22;3995;50.856;4.404;2023-06-14T13:14:36;35.50;25.90
7900;DHT22;3995;50.856;4.404;2023-06-14T13:17:05;35.40;26.20
7900;DHT22;3995;50.856;4.404;2023-06-14T13:19:32;35.40;26.80
7900;DHT22;3995;50.856;4.404;2023-06-14T13:22:00;35.50;27.00
7900;DHT22;3995;50.856;4.404;2023-06-14T13:24:30;35.50;26.30
7900;DHT22;3995;50.856;4.404;2023-06-14T13:27:02;35.40;25.90
7900;DHT22;3995;50.856;4.404;2023-06-14T13:29:30;35.40;25.80
7900;DHT22;3995;50.856;4.404;2023-06-14T13:31:59;35.50;26.60
7900;DHT22;3995;50.856;4.404;2023-06-14T13:34:27;35.50;26.30
7900;DHT22;3995;50.856;4.404;2023-06-14T13:37:05;35.40;26.60
7900;DHT22;3995;50.856;4.404;2023-06-14T13:39:33;35.40;26.70
7900;DHT22;3995;50.856;4.404;2023-06-14T13:42:05;35.40;27.20
7900;DHT22;3995;50.856;4.404;2023-06-14T13:44:32;35.40;26.60
7900;DHT22;3995;50.856;4.404;2023-06-14T13:47:00;35.30;26.40
7900;DHT22;3995;50.856;4.404;2023-06-14T13:49:28;35.30;26.20
7900;DHT22;3995;50.856;4.404;2023-06-14T13:51:56;35.30;25.80
7900;DHT22;3995;50.856;4.404;2023-06-14T13:54:24;35.30;24.90
7900;DHT22;3995;50.856;4.404;2023-06-14T13:56:51;35.30;25.00
7900;DHT22;3995;50.856;4.404;2023-06-14T13:59:21;35.20;25.40
7900;DHT22;3995;50.856;4.404;2023-06-14T14:01:49;35.20;25.30
7900;DHT22;3995;50.856;4.404;2023-06-14T14:04:17;35.20;24.80
7900;DHT22;3995;50.856;4.404;2023-06-14T14:06:47;35.20;24.40
7900;DHT22;3995;50.856;4.404;2023-06-14T14:09:15;35.20;24.30
7900;DHT22;3995;50.856;4.404;2023-06-14T14:11:57;35.00;25.20
7900;DHT22;3995;50.856;4.404;2023-06-14T14:14:27;34.80;25.20
7900;DHT22;3995;50.856;4.404;2023-06-14T14:16:58;34.70;24.90
7900;DHT22;3995;50.856;4.404;2023-06-14T14:19:25;34.50;24.30
7900;DHT22;3995;50.856;4.404;2023-06-14T14:21:58;34.50;24.60
7900;DHT22;3995;50.856;4.404;2023-06-14T14:24:33;34.40;24.40
7900;DHT22;3995;50.856;4.404;2023-06-14T14:27:11;34.40;24.30
7900;DHT22;3995;50.856;4.404;2023-06-14T14:29:41;34.40;24.00
7900;DHT22;3995;50.856;4.404;2023-06-14T14:32:15;34.40;24.90
7900;DHT22;3995;50.856;4.404;2023-06-14T14:34:47;34.40;25.60
7900;DHT22;3995;50.856;4.404;2023-06-14T14:37:15;34.40;24.80
7900;DHT22;3995;50.856;4.404;2023-06-14T14:39:43;34.40;24.50
7900;DHT22;3995;50.856;4.404;2023-06-14T14:42:28;34.40;24.40
7900;DHT22;3995;50.856;4.404;2023-06-14T14:45:11;34.40;24.30
7900;DHT22;3995;50.856;4.404;2023-06-14T14:47:42;34.40;25.90
7900;DHT22;3995;50.856;4.404;2023-06-14T14:50:20;34.40;25.60
7900;DHT22;3995;50.856;4.404;2023-06-14T14:52:54;34.40;25.00
7900;DHT22;3995;50.856;4.404;2023-06-14T14:55:55;34.40;25.30
7900;DHT22;3995;50.856;4.404;2023-06-14T14:58:26;34.40;25.10
7900;DHT22;3995;50.856;4.404;2023-06-14T15:01:11;34.40;24.50
7900;DHT22;3995;50.856;4.404;2023-06-14T15:03:41;34.40;24.10
7900;DHT22;3995;50.856;4.404;2023-06-14T15:06:09;34.40;24.10
7900;DHT22;3995;50.856;4.404;2023-06-14T15:08:40;34.40;23.70
7900;DHT22;3995;50.856;4.404;2023-06-14T15:11:11;34.40;23.80
7900;DHT22;3995;50.856;4.404;2023-06-14T15:13:39;34.40;23.90
7900;DHT22;3995;50.856;4.404;2023-06-14T15:16:09;34.40;23.90
7900;DHT22;3995;50.856;4.404;2023-06-14T15:18:56;34.40;24.20
7900;DHT22;3995;50.856;4.404;2023-06-14T15:21:24;34.40;24.60
7900;DHT22;3995;50.856;4.404;2023-06-14T15:24:04;34.40;24.30
7900;DHT22;3995;50.856;4.404;2023-06-14T15:26:35;34.40;24.30
7900;DHT22;3995;50.856;4.404;2023-06-14T15:29:05;34.40;24.40
7900;DHT22;3995;50.856;4.404;2023-06-14T15:31:35;34.40;25.30
7900;DHT22;3995;50.856;4.404;2023-06-14T15:34:05;34.40;25.10
7900;DHT22;3995;50.856;4.404;2023-06-14T15:36:36;34.40;24.60
7900;DHT22;3995;50.856;4.404;2023-06-14T15:39:12;34.40;24.30
7900;DHT22;3995;50.856;4.404;2023-06-14T15:41:45;34.40;24.90
7900;DHT22;3995;50.856;4.404;2023-06-14T15:44:29;34.30;25.30
7900;DHT22;3995;50.856;4.404;2023-06-14T15:47:10;34.30;25.00
7900;DHT22;3995;50.856;4.404;2023-06-14T15:49:40;34.30;25.10
7900;DHT22;3995;50.856;4.404;2023-06-14T15:52:12;34.30;24.80
7900;DHT22;3995;50.856;4.404;2023-06-14T15:54:43;34.20;24.60
7900;DHT22;3995;50.856;4.404;2023-06-14T15:57:15;34.20;24.90
7900;DHT22;3995;50.856;4.404;2023-06-14T15:59:43;34.20;24.50
7900;DHT22;3995;50.856;4.404;2023-06-14T16:02:16;34.20;24.50
7900;DHT22;3995;50.856;4.404;2023-06-14T16:04:46;34.20;24.60
7900;DHT22;3995;50.856;4.404;2023-06-14T16:07:17;34.20;24.60
7900;DHT22;3995;50.856;4.404;2023-06-14T16:09:54;34.10;24.30
7900;DHT22;3995;50.856;4.404;2023-06-14T16:12:31;34.10;24.30
7900;DHT22;3995;50.856;4.404;2023-06-14T16:15:00;33.90;24.30
7900;DHT22;3995;50.856;4.404;2023-06-14T16:17:33;33.80;24.40
7900;DHT22;3995;50.856;4.404;2023-06-14T16:20:00;33.60;24.50
7900;DHT22;3995;50.856;4.404;2023-06-14T16:22:28;33.50;24.70
7900;DHT22;3995;50.856;4.404;2023-06-14T16:24:56;33.30;24.80
7900;DHT22;3995;50.856;4.404;2023-06-14T16:27:23;33.20;25.00
7900;DHT22;3995;50.856;4.404;2023-06-14T16:29:51;33.10;25.20
7900;DHT22;3995;50.856;4.404;2023-06-14T16:32:19;32.90;25.20
7900;DHT22;3995;50.856;4.404;2023-06-14T16:34:48;32.80;25.40
7900;DHT22;3995;50.856;4.404;2023-06-14T16:37:18;32.70;25.60
7900;DHT22;3995;50.856;4.404;2023-06-14T16:39:48;32.60;25.80
7900;DHT22;3995;50.856;4.404;2023-06-14T16:42:17;32.40;25.80
7900;DHT22;3995;50.856;4.404;2023-06-14T16:44:44;32.40;25.90
7900;DHT22;3995;50.856;4.404;2023-06-14T16:47:11;32.30;25.90
7900;DHT22;3995;50.856;4.404;2023-06-14T16:49:39;32.20;25.80
7900;DHT22;3995;50.856;4.404;2023-06-14T16:52:09;32.10;25.80
7900;DHT22;3995;50.856;4.404;2023-06-14T16:54:37;32.00;26.30
7900;DHT22;3995;50.856;4.404;2023-06-14T16:57:05;32.00;26.00
7900;DHT22;3995;50.856;4.404;2023-06-14T16:59:41;31.90;25.90
7900;DHT22;3995;50.856;4.404;2023-06-14T17:02:09;31.80;26.00
7900;DHT22;3995;50.856;4.404;2023-06-14T17:04:37;31.70;26.50
7900;DHT22;3995;50.856;4.404;2023-06-14T17:07:04;31.70;26.30
7900;DHT22;3995;50.856;4.404;2023-06-14T17:09:33;31.60;26.10
7900;DHT22;3995;50.856;4.404;2023-06-14T17:12:10;31.60;26.00